Upstream stations:
Downstream station:
SHEF ID: CASK1 NF NINNESCAH R AB CHENEY RE, KS
STATION TYPE:
PRECIP STAGE RIV-FLOW DIS-OXY PH CONDUCT AIR-TEMP BAT-LOAD
in ft cfs mg/l su umho/cm F volt
Ccp-Rev Ccp-Rev Ccp-Rev Ccp-Rev Ccp-Rev Ccp-Rev Ccp-Rev Ccp-Rev
(US/Central)
09/02 00:00 0.00 5.84 28 ---- ---- ---- ---- 12.65
09/02 01:00 0.00 5.84 28 ---- ---- ---- ---- 12.65
09/02 02:00 0.00 5.84 28 ---- ---- ---- ---- 12.57
09/02 03:00 0.00 5.83 27 ---- ---- ---- ---- 12.57
09/02 04:00 0.00 5.83 27 ---- ---- ---- ---- 12.57
09/02 05:00 0.00 5.83 27 ---- ---- ---- ---- 12.49
09/02 06:00 0.00 5.83 27 ---- ---- ---- ---- 12.49
09/02 07:00 0.00 5.83 27 ---- ---- ---- ---- 12.49
09/02 08:00 0.00 5.83 27 ---- ---- ---- ---- 12.49
09/02 09:00 0.00 5.83 27 ---- ---- ---- ---- 12.73
09/02 10:00 0.00 5.83 27 ---- ---- ---- ---- 13.44
09/02 11:00 0.00 5.83 27 ---- ---- ---- ---- 13.60
09/02 12:00 0.00 5.83 27 ---- ---- ---- ---- 13.60
09/02 13:00 0.00 5.83 27 ---- ---- ---- ---- 13.53
09/02 14:00 0.00 5.83 27 ---- ---- ---- ---- 13.44
09/02 15:00 0.03 5.82 26 ---- ---- ---- ---- 13.44
09/02 16:00 0.02 5.83 27 ---- ---- ---- ---- 13.05
09/02 17:00 0.00 5.83 27 ---- ---- ---- ---- 13.29
09/02 18:00 0.00 5.83 27 ---- ---- ---- ---- 13.29
09/02 19:00 0.63 5.90 35 ---- ---- ---- ---- 12.89
09/02 20:00 0.02 5.91 36 ---- ---- ---- ---- 12.65
09/02 21:00 0.04 5.93 38 ---- ---- ---- ---- 12.65
09/02 22:00 0.01 5.95 40 ---- ---- ---- ---- 12.65
09/02 23:00 0.02 5.95 40 ---- ---- ---- ---- 12.65